createdAt,value
2023-12-26T00:01:09.151Z,100582.13
2023-12-26T00:03:13.938Z,100604.75
2023-12-26T00:05:18.822Z,100592.50
2023-12-26T00:07:24.923Z,100605.53
2023-12-26T00:09:32.337Z,100599.44
2023-12-26T00:11:37.218Z,100609.06
2023-12-26T00:13:42.104Z,100593.25
2023-12-26T00:15:47.958Z,100608.16
2023-12-26T00:17:52.980Z,100606.31
2023-12-26T00:19:57.917Z,100607.88
2023-12-26T00:22:02.787Z,100596.72
2023-12-26T00:24:09.375Z,100589.69
2023-12-26T00:26:14.374Z,100601.06
2023-12-26T00:28:20.808Z,100598.41
2023-12-26T00:30:23.333Z,100601.06
2023-12-26T00:32:28.281Z,100611.56
2023-12-26T00:34:33.261Z,100600.16
2023-12-26T00:36:38.126Z,100600.28
2023-12-26T00:38:43.161Z,100591.63
2023-12-26T00:40:48.044Z,100605.53
2023-12-26T00:42:55.620Z,100600.28
2023-12-26T00:44:58.198Z,100605.31
2023-12-26T00:47:03.018Z,100590.69
2023-12-26T00:49:08.038Z,100589.66
2023-12-26T00:51:10.938Z,100591.34
2023-12-26T00:53:15.768Z,100603.63
2023-12-26T00:55:20.653Z,100618.53
2023-12-26T00:57:25.569Z,100611.44
2023-12-26T00:59:30.466Z,100609.84
2023-12-26T01:01:35.178Z,100609.84
2023-12-26T01:03:37.535Z,100610.78
2023-12-26T01:05:42.480Z,100608.09
2023-12-26T01:07:47.322Z,100613.19
2023-12-26T01:09:52.250Z,100612.50
2023-12-26T01:11:57.148Z,100616.69
2023-12-26T01:14:02.136Z,100615.13
2023-12-26T01:16:08.485Z,100617.69
2023-12-26T01:18:13.961Z,100629.94
2023-12-26T01:20:19.075Z,100627.31
2023-12-26T01:22:23.988Z,100639.72
2023-12-26T01:24:28.798Z,100629.09
2023-12-26T01:26:32.216Z,100630.81
2023-12-26T01:28:37.034Z,100638.75
2023-12-26T01:30:41.798Z,100639.69
2023-12-26T01:32:50.687Z,100635.28
2023-12-26T01:34:55.674Z,100639.72
2023-12-26T01:37:00.641Z,100650.25
2023-12-26T01:39:03.080Z,100644.09
2023-12-26T01:41:08.277Z,100656.34
2023-12-26T01:43:12.445Z,100661.59
2023-12-26T01:45:17.520Z,100640.69
2023-12-26T01:47:27.132Z,100646.78
2023-12-26T01:49:33.449Z,100657.28
2023-12-26T01:51:39.668Z,100659.06
2023-12-26T01:53:45.055Z,100663.53
2023-12-26T01:55:50.858Z,100668.78
2023-12-26T01:57:55.623Z,100670.56
2023-12-26T02:00:01.466Z,100672.38
2023-12-26T02:02:04.765Z,100667.13
2023-12-26T02:04:09.748Z,100669.97
2023-12-26T02:06:18.322Z,100670.88
2023-12-26T02:08:23.731Z,100672.69
2023-12-26T02:10:28.641Z,100675.47
2023-12-26T02:12:33.830Z,100690.44
2023-12-26T02:14:36.668Z,100693.06
2023-12-26T02:16:45.768Z,100676.50
2023-12-26T02:18:51.842Z,100692.13
2023-12-26T02:20:54.135Z,100689.69
2023-12-26T02:23:04.351Z,100695.06
2023-12-26T02:25:14.089Z,100695.06
2023-12-26T02:27:23.140Z,100705.75
2023-12-26T02:29:27.041Z,100704.94
2023-12-26T02:31:33.451Z,100710.41
2023-12-26T02:33:39.701Z,100697.41
2023-12-26T02:35:46.668Z,100707.13
2023-12-26T02:37:52.675Z,100713.25
2023-12-26T02:39:57.468Z,100696.78
2023-12-26T02:42:04.921Z,100716.19
2023-12-26T02:44:11.193Z,100718.16
2023-12-26T02:46:16.617Z,100710.38
2023-12-26T02:48:19.649Z,100707.75
2023-12-26T02:50:25.126Z,100725.53
2023-12-26T02:52:28.118Z,100725.34
2023-12-26T02:54:32.969Z,100733.44
2023-12-26T02:56:37.804Z,100723.88
2023-12-26T02:58:45.226Z,100746.56
2023-12-26T03:00:50.652Z,100745.09
2023-12-26T03:02:53.111Z,100745.81
2023-12-26T03:04:58.121Z,100751.19
2023-12-26T03:07:00.536Z,100748.50
2023-12-26T03:09:05.550Z,100752.88
2023-12-26T03:11:10.951Z,100753.75
2023-12-26T03:13:16.074Z,100765.19
2023-12-26T03:15:23.805Z,100773.16
2023-12-26T03:17:32.474Z,100770.72
2023-12-26T03:19:37.650Z,100777.97
2023-12-26T03:21:42.464Z,100765.59
2023-12-26T03:23:47.397Z,100774.31
2023-12-26T03:25:52.220Z,100782.31
2023-12-26T03:27:54.671Z,100786.94
2023-12-26T03:29:59.688Z,100783.72
2023-12-26T03:32:07.716Z,100782.13
2023-12-26T03:34:10.998Z,100790.22
2023-12-26T03:36:18.931Z,100797.28
2023-12-26T03:38:23.770Z,100786.78
2023-12-26T03:40:28.635Z,100793.94
2023-12-26T03:42:33.816Z,100784.59
2023-12-26T03:44:36.557Z,100791.47
2023-12-26T03:46:45.459Z,100803.03
2023-12-26T03:48:53.295Z,100801.50
2023-12-26T03:51:00.067Z,100804.31
2023-12-26T03:53:04.907Z,100798.91
2023-12-26T03:55:07.980Z,100806.34
2023-12-26T03:57:12.926Z,100802.44
2023-12-26T03:59:17.867Z,100802.00
2023-12-26T04:01:22.908Z,100798.75
2023-12-26T04:03:27.823Z,100812.09
2023-12-26T04:05:35.502Z,100815.59
2023-12-26T04:07:41.477Z,100826.09
2023-12-26T04:09:47.204Z,100837.47
2023-12-26T04:11:52.152Z,100846.59
2023-12-26T04:13:57.232Z,100851.91
2023-12-26T04:16:02.335Z,100842.22
2023-12-26T04:18:08.153Z,100842.16
2023-12-26T04:20:14.010Z,100851.25
2023-12-26T04:22:21.777Z,100848.94
2023-12-26T04:24:24.097Z,100852.53
2023-12-26T04:26:29.248Z,100852.28
2023-12-26T04:28:34.623Z,100849.47
2023-12-26T04:30:39.888Z,100857.69
2023-12-26T04:32:44.790Z,100876.91
2023-12-26T04:34:47.159Z,100881.22
2023-12-26T04:36:52.055Z,100886.69
2023-12-26T04:38:59.420Z,100888.53
2023-12-26T04:41:04.203Z,100880.72
2023-12-26T04:43:09.896Z,100879.13
2023-12-26T04:45:13.447Z,100887.94
2023-12-26T04:47:18.544Z,100882.09
2023-12-26T04:49:23.444Z,100889.75
2023-12-26T04:51:31.187Z,100891.72
2023-12-26T04:53:34.027Z,100891.59
2023-12-26T04:55:41.852Z,100885.66
2023-12-26T04:57:46.865Z,100891.84
2023-12-26T04:59:51.809Z,100895.25
2023-12-26T05:01:56.770Z,100905.81
2023-12-26T05:04:01.699Z,100900.59
2023-12-26T05:06:07.141Z,100906.69
2023-12-26T05:08:12.880Z,100912.75
2023-12-26T05:10:17.889Z,100898.84
2023-12-26T05:12:25.533Z,100913.78
2023-12-26T05:14:30.560Z,100915.25
2023-12-26T05:16:35.529Z,100909.06
2023-12-26T05:18:38.422Z,100923.22
2023-12-26T05:20:43.933Z,100929.47
2023-12-26T05:22:48.882Z,100932.31
2023-12-26T05:24:54.019Z,100923.75
2023-12-26T05:26:59.307Z,100937.75
2023-12-26T05:29:04.641Z,100936.97
2023-12-26T05:31:10.038Z,100940.59
2023-12-26T05:33:15.370Z,100937.75
2023-12-26T05:35:23.480Z,100947.50
2023-12-26T05:37:28.422Z,100954.47
2023-12-26T05:39:33.367Z,100957.16
2023-12-26T05:41:38.241Z,100956.09
2023-12-26T05:43:43.301Z,100968.41
2023-12-26T05:45:50.866Z,100971.78
2023-12-26T05:47:55.761Z,100970.09
2023-12-26T05:50:01.985Z,100978.00
2023-12-26T05:52:08.503Z,100982.50
2023-12-26T05:54:13.743Z,100991.28
2023-12-26T05:56:18.769Z,100995.56
2023-12-26T05:58:23.758Z,101004.31
2023-12-26T06:00:28.887Z,100998.19
2023-12-26T06:02:36.685Z,101010.63
2023-12-26T06:04:41.750Z,101012.97
2023-12-26T06:06:46.988Z,101011.81
2023-12-26T06:08:51.829Z,101019.94
2023-12-26T06:10:56.691Z,101026.13
2023-12-26T06:13:02.650Z,101029.50
2023-12-26T06:15:06.018Z,101032.13
2023-12-26T06:17:12.003Z,101030.47
2023-12-26T06:19:22.094Z,101039.09
2023-12-26T06:21:27.079Z,101037.22
2023-12-26T06:23:32.940Z,101045.09
2023-12-26T06:25:37.804Z,101053.94
2023-12-26T06:27:42.618Z,101053.06
2023-12-26T06:29:45.494Z,101056.50
2023-12-26T06:31:50.084Z,101047.59
2023-12-26T06:33:54.991Z,101043.34
2023-12-26T06:36:02.468Z,101049.38
2023-12-26T06:38:13.893Z,101049.59
2023-12-26T06:40:19.908Z,101067.03
2023-12-26T06:42:24.704Z,101081.03
2023-12-26T06:44:29.599Z,101080.16
2023-12-26T06:46:35.912Z,101087.03
2023-12-26T06:48:42.332Z,101093.19
2023-12-26T06:50:47.591Z,101087.28
2023-12-26T06:52:55.366Z,101097.09
2023-12-26T06:55:00.351Z,101089.88
2023-12-26T06:57:08.693Z,101088.63
2023-12-26T06:59:13.640Z,101090.47
2023-12-26T07:01:18.792Z,101077.97
2023-12-26T07:03:21.232Z,101083.31
2023-12-26T07:05:26.341Z,101092.06
2023-12-26T07:07:31.212Z,101096.28
2023-12-26T07:09:38.708Z,101102.16
2023-12-26T07:11:43.484Z,101105.56
2023-12-26T07:13:48.372Z,101108.19
2023-12-26T07:15:53.577Z,101104.88
2023-12-26T07:17:59.994Z,101112.75
2023-12-26T07:20:02.472Z,101114.34
2023-12-26T07:22:08.481Z,101118.81
2023-12-26T07:24:14.043Z,101118.88
2023-12-26T07:26:22.795Z,101129.28
2023-12-26T07:28:27.767Z,101121.41
2023-12-26T07:30:32.717Z,101127.53
2023-12-26T07:32:35.157Z,101131.97
2023-12-26T07:34:40.065Z,101131.03
2023-12-26T07:36:45.381Z,101138.94
2023-12-26T07:38:50.773Z,101133.69
2023-12-26T07:40:55.785Z,101145.03
2023-12-26T07:43:03.303Z,101159.09
2023-12-26T07:45:12.065Z,101160.00
2023-12-26T07:47:17.185Z,101158.25
2023-12-26T07:49:22.420Z,101175.88
2023-12-26T07:51:28.289Z,101168.88
2023-12-26T07:53:34.050Z,101165.34
2023-12-26T07:55:42.237Z,101167.94
2023-12-26T07:57:47.279Z,101187.22
2023-12-26T07:59:54.976Z,101193.31
2023-12-26T08:01:59.898Z,101192.50
2023-12-26T08:04:06.007Z,101208.25
2023-12-26T08:06:11.256Z,101214.44
2023-12-26T08:08:16.458Z,101224.03
2023-12-26T08:10:21.741Z,101231.84
2023-12-26T08:12:26.931Z,101224.22
2023-12-26T08:14:31.954Z,101224.13
2023-12-26T08:16:41.998Z,101221.63
2023-12-26T08:18:47.659Z,101231.22
2023-12-26T08:20:51.839Z,101234.75
2023-12-26T08:22:57.355Z,101251.25
2023-12-26T08:25:02.501Z,101248.59
2023-12-26T08:27:08.748Z,101252.91
2023-12-26T08:29:20.617Z,101252.13
2023-12-26T08:31:27.759Z,101257.34
2023-12-26T08:33:38.850Z,101264.28
2023-12-26T08:35:46.625Z,101268.69
2023-12-26T08:37:54.542Z,101269.72
2023-12-26T08:39:59.659Z,101270.50
2023-12-26T08:42:04.667Z,101275.75
2023-12-26T08:44:07.037Z,101275.75
2023-12-26T08:46:12.263Z,101275.69
2023-12-26T08:48:18.171Z,101282.59
2023-12-26T08:50:28.810Z,101286.06
2023-12-26T08:52:33.740Z,101295.66
2023-12-26T08:54:38.765Z,101299.09
2023-12-26T08:56:44.843Z,101310.34
2023-12-26T08:58:52.426Z,101312.91
2023-12-26T09:00:59.744Z,101315.59
2023-12-26T09:03:07.416Z,101326.03
2023-12-26T09:05:16.302Z,101318.16
2023-12-26T09:07:24.137Z,101320.75
2023-12-26T09:09:29.461Z,101328.59
2023-12-26T09:11:34.377Z,101328.53
2023-12-26T09:13:39.403Z,101337.19
2023-12-26T09:15:44.755Z,101345.91
2023-12-26T09:17:50.073Z,101356.31
2023-12-26T09:19:55.004Z,101346.78
2023-12-26T09:22:00.139Z,101350.84
2023-12-26T09:24:08.420Z,101352.75
2023-12-26T09:26:10.700Z,101354.41
2023-12-26T09:28:18.404Z,101359.59
2023-12-26T09:30:24.277Z,101362.13
2023-12-26T09:32:29.642Z,101372.56
2023-12-26T09:34:34.886Z,101384.69
2023-12-26T09:36:40.013Z,101372.38
2023-12-26T09:38:43.616Z,101366.97
2023-12-26T09:40:51.658Z,101372.97
2023-12-26T09:43:01.891Z,101389.53
2023-12-26T09:45:07.795Z,101396.41
2023-12-26T09:47:17.409Z,101393.84
2023-12-26T09:49:28.987Z,101398.25
2023-12-26T09:51:41.101Z,101401.63
2023-12-26T09:53:48.423Z,101405.94
2023-12-26T09:55:57.739Z,101430.19
2023-12-26T09:58:03.959Z,101433.63
2023-12-26T10:00:10.350Z,101432.66
2023-12-26T10:02:16.762Z,101438.66
2023-12-26T10:04:22.192Z,101434.22
2023-12-26T10:06:24.582Z,101436.81
2023-12-26T10:08:31.653Z,101436.91
2023-12-26T10:10:38.859Z,101436.69
2023-12-26T10:12:46.032Z,101435.81
2023-12-26T10:14:51.493Z,101453.16
2023-12-26T10:16:56.824Z,101442.56
2023-12-26T10:19:01.759Z,101452.75
2023-12-26T10:21:07.349Z,101458.72
2023-12-26T10:23:12.962Z,101446.41
2023-12-26T10:25:19.008Z,101442.66
2023-12-26T10:27:24.825Z,101448.47
2023-12-26T10:29:29.734Z,101451.75
2023-12-26T10:31:35.140Z,101451.50
2023-12-26T10:33:46.240Z,101467.72
2023-12-26T10:36:04.775Z,101458.97
2023-12-26T10:38:13.213Z,101449.13
2023-12-26T10:40:19.006Z,101466.69
2023-12-26T10:42:24.956Z,101463.97
2023-12-26T10:44:35.182Z,101460.88
2023-12-26T10:46:38.062Z,101470.53
2023-12-26T10:48:46.098Z,101471.56
2023-12-26T10:50:52.760Z,101484.09
2023-12-26T10:52:59.565Z,101478.00
2023-12-26T10:55:08.392Z,101482.47
2023-12-26T10:57:14.766Z,101477.34
2023-12-26T10:59:17.798Z,101493.91
2023-12-26T11:01:28.656Z,101494.91
2023-12-26T11:03:33.615Z,101489.66
2023-12-26T11:05:35.986Z,101495.00
2023-12-26T11:07:44.207Z,101506.34
2023-12-26T11:09:47.544Z,101497.63
2023-12-26T11:11:51.170Z,101516.84
2023-12-26T11:13:56.488Z,101501.25
2023-12-26T11:16:00.100Z,101511.75
2023-12-26T11:18:07.682Z,101502.13
2023-12-26T11:20:15.270Z,101510.91
2023-12-26T11:22:20.013Z,101498.75
2023-12-26T11:24:26.117Z,101514.47
2023-12-26T11:26:34.679Z,101508.34
2023-12-26T11:28:40.852Z,101511.78
2023-12-26T11:30:46.285Z,101522.31
2023-12-26T11:32:52.511Z,101517.78
2023-12-26T11:34:57.859Z,101529.94
2023-12-26T11:37:00.840Z,101529.94
2023-12-26T11:39:06.420Z,101530.94
2023-12-26T11:41:12.024Z,101526.47
2023-12-26T11:43:16.893Z,101540.56
2023-12-26T11:45:22.122Z,101545.91
2023-12-26T11:47:24.736Z,101541.50
2023-12-26T11:49:27.545Z,101552.00
2023-12-26T11:51:35.167Z,101557.25
2023-12-26T11:53:37.772Z,101553.84
2023-12-26T11:55:40.167Z,101563.47
2023-12-26T11:57:45.201Z,101571.25
2023-12-26T11:59:54.676Z,101566.03
2023-12-26T12:01:57.474Z,101571.31
2023-12-26T12:04:02.694Z,101576.44
2023-12-26T12:06:15.155Z,101573.97
2023-12-26T12:08:20.357Z,101575.81
2023-12-26T12:10:25.763Z,101569.66
2023-12-26T12:12:28.363Z,101583.69
2023-12-26T12:14:31.126Z,101581.13
2023-12-26T12:16:36.242Z,101582.81
2023-12-26T12:18:38.606Z,101582.94
2023-12-26T12:20:41.328Z,101575.06
2023-12-26T12:22:46.376Z,101586.38
2023-12-26T12:24:52.074Z,101580.38
2023-12-26T12:27:02.728Z,101600.41
2023-12-26T12:29:07.752Z,101596.94
2023-12-26T12:31:14.980Z,101603.91
2023-12-26T12:33:23.697Z,101607.41
2023-12-26T12:35:28.712Z,101606.56
2023-12-26T12:37:34.465Z,101600.41
2023-12-26T12:39:36.680Z,101611.81
2023-12-26T12:41:46.796Z,101608.28
2023-12-26T12:43:49.701Z,101609.19
2023-12-26T12:45:52.873Z,101621.38
2023-12-26T12:47:57.757Z,101616.19
2023-12-26T12:50:00.594Z,101622.25
2023-12-26T12:52:03.274Z,101622.31
2023-12-26T12:54:08.217Z,101626.66
2023-12-26T12:56:10.981Z,101635.31
2023-12-26T12:58:16.416Z,101631.84
2023-12-26T13:00:21.707Z,101636.06
2023-12-26T13:02:24.582Z,101630.16
2023-12-26T13:04:27.402Z,101637.78
2023-12-26T13:06:32.631Z,101643.94
2023-12-26T13:08:35.357Z,101643.94
2023-12-26T13:10:37.729Z,101640.41
2023-12-26T13:12:42.687Z,101642.25
2023-12-26T13:14:50.250Z,101639.66
2023-12-26T13:16:53.432Z,101657.91
2023-12-26T13:18:58.589Z,101651.91
2023-12-26T13:21:01.108Z,101649.22
2023-12-26T13:23:03.420Z,101646.66
2023-12-26T13:25:13.188Z,101648.50
2023-12-26T13:27:23.275Z,101660.66
2023-12-26T13:29:26.081Z,101654.53
2023-12-26T13:31:33.947Z,101652.75
2023-12-26T13:33:37.545Z,101647.72
2023-12-26T13:35:40.015Z,101653.78
2023-12-26T13:37:44.868Z,101651.25
2023-12-26T13:39:47.167Z,101653.91
2023-12-26T13:41:49.467Z,101654.81
2023-12-26T13:43:55.127Z,101676.75
2023-12-26T13:45:57.935Z,101665.34
2023-12-26T13:48:02.771Z,101682.81
2023-12-26T13:50:10.526Z,101689.75
2023-12-26T13:52:14.116Z,101698.56
2023-12-26T13:54:19.213Z,101707.34
2023-12-26T13:56:22.057Z,101705.63
2023-12-26T13:58:26.886Z,101710.94
2023-12-26T14:00:29.363Z,101717.09
2023-12-26T14:02:34.525Z,101731.88
2023-12-26T14:04:42.752Z,101726.59
2023-12-26T14:06:49.407Z,101730.16
2023-12-26T14:08:56.814Z,101731.88
2023-12-26T14:11:02.624Z,101730.19
2023-12-26T14:13:07.658Z,101725.84
2023-12-26T14:15:12.960Z,101739.91
2023-12-26T14:17:17.994Z,101746.00
2023-12-26T14:19:23.150Z,101732.91
2023-12-26T14:21:31.063Z,101734.72
2023-12-26T14:23:34.410Z,101742.53
2023-12-26T14:25:39.666Z,101745.25
2023-12-26T14:27:44.797Z,101748.66
2023-12-26T14:29:50.316Z,101746.09
2023-12-26T14:31:55.294Z,101747.81
2023-12-26T14:33:57.903Z,101756.56
2023-12-26T14:36:02.909Z,101749.53
2023-12-26T14:38:10.672Z,101763.47
2023-12-26T14:40:13.114Z,101759.19
2023-12-26T14:42:17.935Z,101757.41
2023-12-26T14:44:20.734Z,101766.16
2023-12-26T14:46:28.162Z,101771.38
2023-12-26T14:48:33.310Z,101773.16
2023-12-26T14:50:36.341Z,101781.06
2023-12-26T14:52:43.855Z,101784.53
2023-12-26T14:54:51.896Z,101784.53
2023-12-26T14:56:56.906Z,101784.56
2023-12-26T14:59:02.161Z,101785.44
2023-12-26T15:01:04.541Z,101779.31
2023-12-26T15:03:10.247Z,101779.28
2023-12-26T15:05:16.031Z,101779.19
2023-12-26T15:07:22.553Z,101785.41
2023-12-26T15:09:31.275Z,101785.44
2023-12-26T15:11:39.052Z,101784.66
2023-12-26T15:13:48.657Z,101791.59
2023-12-26T15:16:00.621Z,101797.00
2023-12-26T15:18:05.738Z,101802.19
2023-12-26T15:20:12.653Z,101798.78
2023-12-26T15:22:17.546Z,101804.91
2023-12-26T15:24:22.525Z,101811.91
2023-12-26T15:26:27.724Z,101828.47
2023-12-26T15:28:37.812Z,101822.31
2023-12-26T15:30:43.990Z,101823.28
2023-12-26T15:32:49.696Z,101830.28
2023-12-26T15:34:55.049Z,101839.03
2023-12-26T15:37:00.582Z,101844.28
2023-12-26T15:39:03.301Z,101851.28
2023-12-26T15:41:08.284Z,101848.66
2023-12-26T15:43:13.134Z,101848.72
2023-12-26T15:45:25.727Z,101855.66
2023-12-26T15:47:28.015Z,101866.19
2023-12-26T15:49:33.364Z,101866.22
2023-12-26T15:51:38.490Z,101867.94
2023-12-26T15:53:44.658Z,101878.50
2023-12-26T15:55:49.535Z,101871.56
2023-12-26T15:57:55.442Z,101883.81
2023-12-26T16:00:00.352Z,101887.34
2023-12-26T16:02:08.346Z,101885.63
2023-12-26T16:04:12.270Z,101884.78
2023-12-26T16:06:23.196Z,101885.66
2023-12-26T16:08:25.906Z,101897.03
2023-12-26T16:10:31.095Z,101902.34
2023-12-26T16:12:34.666Z,101908.53
2023-12-26T16:14:39.801Z,101907.66
2023-12-26T16:16:46.639Z,101898.09
2023-12-26T16:18:57.901Z,101901.63
2023-12-26T16:21:05.947Z,101910.44
2023-12-26T16:23:11.896Z,101909.56
2023-12-26T16:25:20.279Z,101905.19
2023-12-26T16:27:29.534Z,101917.44
2023-12-26T16:29:32.378Z,101922.72
2023-12-26T16:31:38.503Z,101924.50
2023-12-26T16:33:44.240Z,101927.19
2023-12-26T16:35:51.874Z,101927.25
2023-12-26T16:37:57.244Z,101929.00
2023-12-26T16:40:05.414Z,101933.38
2023-12-26T16:42:12.411Z,101928.19
2023-12-26T16:44:18.353Z,101938.72
2023-12-26T16:46:25.648Z,101942.25
2023-12-26T16:48:31.199Z,101940.53
2023-12-26T16:50:37.052Z,101951.94
2023-12-26T16:52:48.510Z,101949.38
2023-12-26T16:54:55.806Z,101952.88
2023-12-26T16:57:00.970Z,101965.13
2023-12-26T16:59:06.195Z,101963.44
2023-12-26T17:01:13.919Z,101959.94
2023-12-26T17:03:19.301Z,101958.25
2023-12-26T17:05:26.386Z,101967.88
2023-12-26T17:07:32.756Z,101967.03
2023-12-26T17:09:40.516Z,101973.16
2023-12-26T17:11:48.613Z,101979.25
2023-12-26T17:13:52.717Z,101977.53
2023-12-26T17:15:57.952Z,101978.38
2023-12-26T17:18:06.746Z,101983.59
2023-12-26T17:20:18.001Z,101993.19
2023-12-26T17:22:24.988Z,101994.94
2023-12-26T17:24:33.290Z,101994.94
2023-12-26T17:26:42.532Z,101990.59
2023-12-26T17:28:50.721Z,101996.69
2023-12-26T17:30:56.595Z,101995.84
2023-12-26T17:33:02.129Z,101985.44
2023-12-26T17:35:09.415Z,101978.47
2023-12-26T17:37:18.114Z,101972.38
2023-12-26T17:39:23.898Z,101969.81
2023-12-26T17:41:29.024Z,101964.56
2023-12-26T17:43:37.128Z,101960.25
2023-12-26T17:45:42.535Z,101958.50
2023-12-26T17:47:47.993Z,101968.06
2023-12-26T17:49:53.341Z,101970.69
2023-12-26T17:52:00.075Z,101967.19
2023-12-26T17:54:05.561Z,101969.78
2023-12-26T17:56:10.579Z,101967.19
2023-12-26T17:58:16.539Z,101969.78
2023-12-26T18:00:26.310Z,101974.06
2023-12-26T18:02:31.349Z,101985.38
2023-12-26T18:04:36.454Z,101981.88
2023-12-26T18:06:43.662Z,101987.06
2023-12-26T18:08:49.124Z,101996.63
2023-12-26T18:10:56.467Z,102001.81
2023-12-26T18:13:01.795Z,102004.41
2023-12-26T18:15:07.676Z,102012.22
2023-12-26T18:17:14.449Z,102013.06
2023-12-26T18:19:19.714Z,102019.97
2023-12-26T18:21:29.862Z,102022.53
2023-12-26T18:23:32.581Z,102025.13
2023-12-26T18:25:38.165Z,102032.88
2023-12-26T18:27:43.409Z,102030.28
2023-12-26T18:29:51.197Z,102028.53
2023-12-26T18:31:59.177Z,102036.34
2023-12-26T18:34:07.420Z,102036.34
2023-12-26T18:36:13.280Z,102035.50
2023-12-26T18:38:21.656Z,102040.63
2023-12-26T18:40:34.533Z,102050.16
2023-12-26T18:42:44.396Z,102052.72
2023-12-26T18:44:52.623Z,102052.72
2023-12-26T18:46:58.063Z,102057.91
2023-12-26T18:49:06.697Z,102063.97
2023-12-26T18:51:14.872Z,102058.72
2023-12-26T18:53:20.102Z,102055.31
2023-12-26T18:55:23.195Z,102063.09
2023-12-26T18:57:30.533Z,102063.94
2023-12-26T18:59:36.224Z,102066.47
2023-12-26T19:01:47.152Z,102070.75
2023-12-26T19:03:57.071Z,102072.44
2023-12-26T19:06:02.368Z,102074.19
2023-12-26T19:08:10.632Z,102082.78
2023-12-26T19:10:18.234Z,102083.69
2023-12-26T19:12:23.350Z,102087.13
2023-12-26T19:14:33.980Z,102094.03
2023-12-26T19:16:39.726Z,102087.06
2023-12-26T19:18:48.164Z,102089.66
2023-12-26T19:20:51.511Z,102089.56
2023-12-26T19:22:58.609Z,102084.34
2023-12-26T19:25:07.063Z,102091.34
2023-12-26T19:27:15.119Z,102092.19
2023-12-26T19:29:23.287Z,102087.03
2023-12-26T19:31:28.668Z,102089.63
2023-12-26T19:33:33.239Z,102098.41
2023-12-26T19:35:39.052Z,102095.75
2023-12-26T19:37:45.980Z,102107.78
2023-12-26T19:39:48.692Z,102106.03
2023-12-26T19:41:57.145Z,102122.56
2023-12-26T19:43:59.833Z,102119.13
2023-12-26T19:46:15.779Z,102119.94
2023-12-26T19:48:21.274Z,102126.91
2023-12-26T19:50:26.800Z,102124.25
2023-12-26T19:52:35.734Z,102121.63
2023-12-26T19:54:41.685Z,102125.91
2023-12-26T19:56:47.809Z,102124.16
2023-12-26T19:58:56.332Z,102118.06
2023-12-26T20:01:04.908Z,102120.63
2023-12-26T20:03:18.826Z,102124.16
2023-12-26T20:05:31.217Z,102125.84
2023-12-26T20:07:37.708Z,102128.44
2023-12-26T20:09:41.254Z,102117.13
2023-12-26T20:11:46.890Z,102124.03
2023-12-26T20:13:55.169Z,102124.84
2023-12-26T20:16:00.162Z,102126.59
2023-12-26T20:18:03.098Z,102127.38
2023-12-26T20:20:09.685Z,102124.81
2023-12-26T20:22:14.547Z,102132.66
2023-12-26T20:24:22.942Z,102130.00
2023-12-26T20:26:28.101Z,102127.44
2023-12-26T20:28:31.076Z,102126.56
2023-12-26T20:30:38.642Z,102128.25
2023-12-26T20:32:44.229Z,102126.59
2023-12-26T20:34:49.235Z,102118.75
2023-12-26T20:36:51.812Z,102122.13
2023-12-26T20:38:56.875Z,102113.47
2023-12-26T20:41:05.841Z,102114.31
2023-12-26T20:43:11.277Z,102110.00
2023-12-26T20:45:16.572Z,102112.56
2023-12-26T20:47:24.779Z,102109.97
2023-12-26T20:49:31.130Z,102120.44
2023-12-26T20:51:33.677Z,102128.25
2023-12-26T20:53:38.535Z,102135.19
2023-12-26T20:55:45.471Z,102133.41
2023-12-26T20:57:48.748Z,102141.22
2023-12-26T20:59:54.351Z,102136.88
2023-12-26T21:01:59.178Z,102130.91
2023-12-26T21:04:06.978Z,102130.94
2023-12-26T21:06:09.536Z,102130.91
2023-12-26T21:08:17.590Z,102136.94
2023-12-26T21:10:23.330Z,102148.09
2023-12-26T21:12:30.902Z,102144.63
2023-12-26T21:14:35.878Z,102136.81
2023-12-26T21:16:38.197Z,102133.34
2023-12-26T21:18:43.428Z,102126.34
2023-12-26T21:20:52.111Z,102135.94
2023-12-26T21:22:56.963Z,102140.19
2023-12-26T21:25:02.147Z,102143.63
2023-12-26T21:27:07.851Z,102142.78
2023-12-26T21:29:13.019Z,102141.13
2023-12-26T21:31:22.249Z,102146.25
2023-12-26T21:33:24.753Z,102147.97
2023-12-26T21:35:31.385Z,102148.81
2023-12-26T21:37:42.370Z,102144.53
2023-12-26T21:39:47.367Z,102140.16
2023-12-26T21:41:52.212Z,102143.63
2023-12-26T21:43:57.401Z,102145.34
2023-12-26T21:46:04.673Z,102144.44
2023-12-26T21:48:10.176Z,102146.19
2023-12-26T21:50:16.703Z,102148.81
2023-12-26T21:52:18.981Z,102154.88
2023-12-26T21:54:27.032Z,102155.69
2023-12-26T21:56:32.158Z,102161.75
2023-12-26T21:58:37.197Z,102161.81
2023-12-26T22:00:49.710Z,102155.78
2023-12-26T22:03:02.351Z,102167.94
2023-12-26T22:05:07.866Z,102180.91
2023-12-26T22:07:13.064Z,102171.47
2023-12-26T22:09:17.734Z,102177.56
2023-12-26T22:11:25.161Z,102173.22
2023-12-26T22:13:29.987Z,102178.38
2023-12-26T22:15:32.308Z,102187.91
2023-12-26T22:17:37.870Z,102190.50
2023-12-26T22:19:44.361Z,102186.19
2023-12-26T22:21:49.215Z,102180.13
2023-12-26T22:23:54.956Z,102182.66
2023-12-26T22:26:00.633Z,102185.25
2023-12-26T22:28:08.716Z,102180.13
2023-12-26T22:30:14.494Z,102184.44
2023-12-26T22:32:20.193Z,102186.09
2023-12-26T22:34:28.847Z,102191.38
2023-12-26T22:36:31.702Z,102192.25
2023-12-26T22:38:37.419Z,102193.97
2023-12-26T22:40:42.374Z,102203.44
2023-12-26T22:42:47.847Z,102193.06
2023-12-26T22:44:55.377Z,102187.88
2023-12-26T22:47:02.376Z,102188.72
2023-12-26T22:49:07.389Z,102189.59
2023-12-26T22:51:18.426Z,102182.69
2023-12-26T22:53:25.046Z,102188.72
2023-12-26T22:55:30.001Z,102181.84
2023-12-26T22:57:34.224Z,102174.06
2023-12-26T22:59:39.127Z,102184.44
2023-12-26T23:01:50.053Z,102179.25
2023-12-26T23:03:55.100Z,102176.66
2023-12-26T23:06:02.451Z,102169.69
2023-12-26T23:08:08.014Z,102173.13
2023-12-26T23:10:13.520Z,102174.03
2023-12-26T23:12:15.959Z,102176.59
2023-12-26T23:14:21.061Z,102180.09
2023-12-26T23:16:26.951Z,102183.56
2023-12-26T23:18:35.709Z,102187.91
2023-12-26T23:20:38.830Z,102190.44
2023-12-26T23:22:46.245Z,102187.81
2023-12-26T23:24:51.203Z,102178.25
2023-12-26T23:26:57.009Z,102178.25
2023-12-26T23:28:59.413Z,102175.69
2023-12-26T23:31:04.479Z,102174.88
2023-12-26T23:33:09.929Z,102176.66
2023-12-26T23:35:19.333Z,102176.69
2023-12-26T23:37:24.361Z,102171.38
2023-12-26T23:39:30.405Z,102169.66
2023-12-26T23:41:42.273Z,102169.72
2023-12-26T23:43:47.214Z,102161.00
2023-12-26T23:45:52.405Z,102160.09
2023-12-26T23:47:58.180Z,102166.97
2023-12-26T23:50:03.477Z,102165.22
2023-12-26T23:52:11.625Z,102156.50
2023-12-26T23:54:16.501Z,102156.59
2023-12-26T23:56:21.445Z,102149.59